Date,TemperatureHighF,TemperatureAvgF,TemperatureLowF,DewpointHighF,DewpointAvgF,DewpointLowF,HumidityHigh,HumidityAvg,HumidityLow,PressureMaxIn,PressureMinIn,WindSpeedMaxMPH,WindSpeedAvgMPH,GustSpeedMaxMPH,PrecipitationSumIn
2013-1-7,58,43,31,29,27,24,80,55,29,30.08,29.95,5,0,11,0.00
2013-1-8,61,49,37,30,28,25,66,46,28,30.27,30.16,5,0,37,0.01
2013-1-9,70,53,33,27,18,9,73,34,10,30.37,30.16,17,5,27,0.00
2013-1-10,67,43,35,30,22,19,61,45,17,30.18,30.03,5,0,13,0.00
2013-1-12,80,77,70,65,63,59,69,63,60,30.24,30.00,14,13,25,6.22
2013-1-13,79,67,36,64,57,7,79,70,29,31.22,29.75,14,8,24,0.41
2013-1-14,44,31,19,15,10,4,73,46,20,30.37,30.25,8,1,17,0.00
2013-1-15,46,30,15,10,4,-3,69,37,13,30.60,30.45,7,0,16,0.00
2013-1-16,60,44,23,8,5,1,49,22,11,30.60,30.37,13,5,26,0.00
2013-1-17,66,58,51,17,12,8,20,16,12,30.37,30.23,20,15,39,0.00
2013-1-18,73,60,46,21,17,12,36,20,10,30.31,30.17,18,8,29,0.00
2013-1-19,78,55,37,26,20,15,49,28,11,30.35,30.21,6,1,13,0.00
2013-1-20,78,56,39,36,27,22,53,35,17,30.28,30.10,5,1,15,0.00
2013-1-21,80,57,40,33,30,28,63,40,17,30.22,30.09,10,1,18,0.00
2013-1-22,81,62,40,34,29,24,67,33,13,30.28,30.16,10,2,15,0.00
2013-1-23,81,63,45,32,29,25,49,29,15,30.29,30.17,9,1,17,0.00
2013-1-24,66,59,52,55,41,30,85,54,32,30.32,30.22,9,1,15,0.03
2013-1-25,78,64,50,48,46,43,79,53,31,30.28,30.05,9,1,16,0.00
2013-1-26,68,59,54,58,52,46,95,78,50,30.08,29.97,12,1,32,0.56
2013-1-27,64,57,49,53,49,46,96,75,52,30.12,30.02,4,0,9,0.00
2013-1-28,55,51,42,49,41,28,90,70,48,30.12,30.01,16,3,27,0.10
2013-1-29,51,43,35,35,27,18,81,56,29,30.36,30.12,12,4,22,0.00
2013-1-30,59,43,30,29,25,17,82,53,20,30.53,30.36,5,1,10,0.00
2013-1-31,65,47,32,36,29,24,78,53,26,30.44,30.25,9,1,16,0.00
2013-2-1,73,51,32,36,29,19,84,51,13,30.37,30.26,5,1,13,0.00
2013-2-2,78,55,35,38,30,19,79,45,12,30.39,30.23,6,1,10,0.00
2013-2-3,70,58,48,40,35,26,69,44,22,30.26,30.06,6,1,10,0.00
2013-2-4,71,56,45,40,39,37,77,56,30,30.15,30.03,5,0,13,0.00
2013-2-5,74,57,39,43,39,35,90,57,24,30.14,30.01,7,1,13,0.00
2013-2-6,70,55,42,44,39,35,88,57,28,30.15,30.01,10,1,17,0.00
2013-2-7,72,55,39,40,35,27,86,52,22,30.23,30.07,8,1,16,0.00
2013-2-8,68,54,41,36,26,14,72,39,13,30.08,29.89,12,3,24,0.00
2013-2-9,52,44,35,37,29,22,90,59,32,30.19,29.90,13,2,24,0.05
2013-2-10,58,42,28,29,23,15,85,53,19,30.22,30.10,6,1,14,0.00
2013-2-11,53,38,29,36,29,23,94,73,37,30.35,30.13,11,1,22,0.25
2013-2-12,53,40,29,36,32,28,96,73,40,30.47,30.35,6,1,11,0.00
2013-2-13,61,44,27,32,26,21,92,55,22,30.39,30.24,7,1,13,0.00
2013-2-14,67,48,30,32,27,22,84,51,18,30.32,30.17,7,1,13,0.00
2013-2-15,72,55,39,32,23,13,71,33,11,30.37,30.27,16,4,25,0.00
2013-2-16,73,62,50,17,11,4,27,14,7,30.37,30.08,23,12,38,0.00
2013-2-17,74,58,38,22,13,2,45,20,6,30.08,29.93,12,2,20,0.00
2013-2-18,72,53,38,26,19,7,56,30,8,30.17,30.03,4,0,10,0.00
2013-2-19,71,56,39,31,18,9,52,27,10,30.06,29.82,16,3,27,0.00
2013-2-20,52,41,32,40,33,30,94,76,43,30.12,29.80,14,2,35,0.20
2013-2-21,53,42,33,38,33,31,95,73,47,30.25,30.11,7,1,13,0.34
2013-2-22,56,45,34,38,33,27,94,65,36,30.30,30.15,7,1,17,0.00
2013-2-23,66,48,33,34,27,18,80,50,16,30.30,29.98,6,1,14,0.00
2013-2-24,52,42,33,32,21,6,83,49,16,30.26,29.94,17,4,32,0.00
2013-2-25,60,43,28,26,19,15,71,42,19,30.40,30.21,5,0,13,0.00
2013-2-26,65,47,28,26,20,15,79,41,16,30.24,30.10,8,1,15,0.00
2013-2-27,65,49,34,21,11,2,58,25,10,30.35,30.23,10,2,21,0.00
2013-2-28,69,50,33,22,14,2,53,28,7,30.47,30.33,12,2,21,0.00
2013-3-1,75,55,33,27,17,9,54,26,10,30.47,30.32,12,1,21,0.00
2013-3-2,85,62,39,31,24,4,62,30,5,30.42,30.19,6,1,13,0.00
2013-3-3,80,63,42,34,24,9,62,28,7,30.21,30.00,8,2,15,0.00
2013-3-4,72,63,54,33,28,17,41,27,15,30.15,29.95,16,4,30,0.00
2013-3-5,81,64,48,34,29,21,53,30,11,30.20,30.05,9,2,21,0.00
2013-3-6,82,65,49,36,30,19,57,31,13,30.11,29.94,6,1,15,0.00
2013-3-7,80,62,44,33,26,12,58,30,8,30.05,29.94,12,2,25,0.00
2013-3-8,67,57,43,47,37,29,68,48,32,30.07,29.82,22,7,37,0.05
2013-3-9,54,47,43,38,35,33,77,65,48,30.23,30.07,11,2,19,0.01
2013-3-10,67,52,38,39,33,25,86,53,23,30.30,30.18,7,1,21,0.00
2013-3-11,74,55,38,32,30,26,68,42,18,30.31,30.12,5,1,14,0.00
2013-3-12,84,61,40,36,31,22,69,37,11,30.20,30.08,6,1,14,0.00
2013-3-13,90,68,43,35,25,16,65,28,7,30.23,30.08,12,2,22,0.00
2013-3-14,93,72,51,30,18,-8,40,17,2,30.17,30.03,11,2,21,0.00
2013-3-15,94,72,50,30,20,-8,40,18,2,30.09,29.93,16,2,26,0.00
2013-3-16,89,70,49,30,19,-3,41,18,3,29.97,29.77,14,3,25,0.00
2013-3-17,83,66,50,27,21,12,35,20,7,29.99,29.85,18,4,32,0.00
2013-3-18,83,66,48,35,25,11,48,25,7,30.07,29.96,10,2,19,0.00
2013-3-19,80,65,50,36,29,23,49,28,13,30.11,29.99,11,3,20,0.00
2013-3-20,83,67,50,33,28,22,46,26,11,30.12,29.93,9,2,16,0.00
2013-3-21,77,65,50,36,31,27,51,30,18,29.93,29.79,7,1,15,0.00
2013-3-22,80,67,50,35,31,26,49,28,15,29.87,29.73,13,3,25,0.00
2013-3-23,74,61,46,34,20,-2,53,25,5,30.07,29.87,16,3,28,0.00
2013-3-24,77,59,40,14,5,-8,30,14,4,30.12,29.96,13,2,23,0.00
2013-3-25,81,65,45,18,13,9,26,14,7,30.10,29.97,9,2,17,0.00
2013-3-26,86,69,49,23,14,0,32,14,4,30.05,29.88,9,2,18,0.00
2013-3-27,86,69,51,24,18,10,30,15,6,30.06,29.93,11,2,24,0.00
2013-3-28,85,69,48,33,22,13,37,18,7,30.11,30.00,10,2,18,0.00
2013-3-29,87,71,53,33,21,11,32,17,6,30.13,30.02,8,2,18,0.00
2013-3-30,84,69,53,28,22,12,31,18,7,30.11,29.97,7,1,15,0.00
2013-3-31,86,68,47,33,26,20,49,24,10,30.10,29.95,7,1,22,0.00
2013-4-1,83,68,50,35,28,21,42,25,13,30.07,29.92,9,2,22,0.00
2013-4-2,78,63,45,27,21,13,45,23,9,30.03,29.92,15,3,24,0.00
2013-4-3,83,65,46,28,25,21,43,24,11,30.12,30.01,6,2,16,0.00
2013-4-4,90,71,49,32,22,6,44,20,5,30.13,29.95,7,1,16,0.00
2013-4-5,88,72,57,31,27,22,33,20,10,30.03,29.87,13,3,23,0.00
2013-4-6,86,71,51,36,29,23,47,23,11,30.03,29.85,9,2,18,0.00
2013-4-7,86,71,55,37,30,21,49,25,9,29.94,29.77,10,2,39,0.00
2013-4-8,83,68,48,41,34,25,78,30,14,29.80,29.45,19,8,38,0.00
2013-4-9,64,55,45,45,34,22,93,54,22,29.95,29.63,13,4,27,0.07
2013-4-18,72,57,37,16,10,4,38,18,7,30.23,30.09,12,1,19,0.00
2013-4-19,82,64,44,11,-2,-17,24,9,2,30.25,30.02,15,4,27,0.00
2013-4-20,85,66,42,18,9,-1,26,13,4,30.07,29.95,12,2,23,0.00
2013-4-21,90,71,50,25,15,4,29,14,4,30.12,29.96,8,2,18,0.00
2013-4-22,92,74,53,26,15,-1,26,12,3,30.03,29.81,10,2,19,0.00
2013-4-23,89,72,52,28,18,11,28,15,6,29.94,29.82,11,2,22,0.00
2013-4-24,92,76,56,33,22,5,33,16,4,29.97,29.84,10,-1,20,0.00
2013-4-25,85,73,58,33,25,9,32,18,6,30.07,29.88,18,5,34,0.00
2013-4-26,88,70,49,32,26,18,45,22,8,30.16,30.04,9,2,16,0.00
2013-4-27,93,74,51,30,22,9,40,17,5,30.12,29.92,8,2,19,0.00
2013-4-28,95,77,53,29,15,0,33,13,3,29.95,29.77,9,2,20,0.00
2013-4-29,98,78,54,24,12,-6,28,10,2,29.87,29.68,10,2,20,0.00
2013-4-30,97,79,56,28,16,6,30,12,4,29.83,29.69,11,3,26,0.00
2013-5-1,92,75,54,30,19,4,34,15,4,30.01,29.82,10,2,19,0.00
2013-5-2,91,75,55,31,16,0,33,13,4,30.12,30.01,20,7,39,0.00
2013-5-3,88,73,60,22,15,6,22,12,5,30.08,29.83,28,13,46,0.00
2013-5-4,93,76,54,25,18,8,28,13,5,29.87,29.72,12,2,27,0.00
2013-5-5,89,74,56,42,29,21,39,20,9,29.97,29.78,15,3,25,0.00
2013-5-6,84,70,54,54,42,31,88,43,16,30.02,29.90,10,2,23,0.03
2013-5-7,85,69,53,44,35,20,55,33,11,30.04,29.89,14,3,28,0.00
2013-5-8,82,67,50,42,36,26,65,35,14,30.08,29.96,8,1,19,0.00
2013-5-9,84,70,52,43,34,16,64,30,8,30.05,29.92,7,1,16,0.00
2013-5-10,89,71,52,40,34,28,53,28,12,30.10,29.96,15,3,28,0.00
2013-5-11,87,76,60,39,35,27,39,24,12,30.12,30.03,18,7,29,0.00
2013-5-12,91,79,67,40,32,24,32,19,9,30.16,29.96,14,5,28,0.00
2013-5-13,95,82,64,32,25,9,25,13,5,30.08,29.90,11,4,24,0.00
2013-5-14,98,83,65,47,30,14,50,17,7,29.98,29.81,8,1,21,0.00
2013-5-15,98,82,62,36,32,25,34,18,8,30.01,29.82,13,3,25,0.00
2013-5-16,99,83,62,33,25,13,28,14,5,29.93,29.75,11,2,22,0.00
2013-5-17,96,79,58,38,25,11,38,17,5,29.92,29.80,11,3,22,0.00
2013-5-18,91,77,57,36,27,17,37,18,7,29.95,29.83,12,2,24,0.00
2013-5-19,91,76,58,43,35,18,51,25,7,29.94,29.80,10,2,21,0.00
2013-5-20,91,78,58,41,29,18,45,20,8,29.93,29.81,14,3,27,0.00
2013-5-21,96,78,55,30,17,-7,27,12,2,29.94,29.78,8,1,17,0.00
2013-5-22,99,82,61,33,21,8,25,12,4,29.85,29.68,8,2,28,0.00
2013-5-23,99,82,58,40,26,10,37,16,4,29.87,29.75,12,2,22,0.00
2013-5-24,99,82,62,42,25,-5,40,16,2,29.93,29.81,11,2,20,0.00
2013-5-25,99,82,60,42,23,-6,39,16,2,29.95,29.84,12,2,22,0.00
2013-5-26,96,80,60,32,14,-22,27,11,1,29.98,29.85,12,2,25,0.00
2013-5-27,98,79,57,30,11,-19,24,10,1,29.92,29.73,9,1,18,0.00
2013-5-28,96,80,60,35,22,0,26,13,3,29.80,29.61,12,3,22,0.00
2013-5-29,94,79,59,49,34,29,39,22,10,29.78,29.66,11,2,22,0.00
2013-5-30,98,83,64,54,43,32,60,29,10,29.85,29.73,9,2,20,0.00
2013-5-31,99,84,66,58,45,29,67,30,9,29.87,29.75,10,2,19,0.00
2013-6-1,106,86,63,44,34,15,39,19,4,29.85,29.68,7,1,16,0.00
2013-6-2,107,90,68,47,36,24,37,17,6,29.79,29.64,12,3,23,0.00
2013-6-3,103,87,64,42,27,6,34,14,3,29.83,29.71,12,2,22,0.00
2013-6-4,103,88,69,47,34,23,32,17,7,29.85,29.74,10,2,21,0.00
2013-6-5,101,84,63,39,24,4,32,14,3,29.89,29.75,9,2,22,0.00
2013-6-6,104,86,62,34,26,22,29,13,6,29.85,29.69,8,1,19,0.00
2013-6-7,108,89,67,35,26,17,25,12,4,29.80,29.62,8,2,18,0.00
2013-6-8,105,90,68,39,24,13,24,11,4,29.83,29.72,13,4,27,0.00
2013-6-9,105,88,67,41,26,-2,34,14,2,29.89,29.75,11,2,21,0.00
2013-6-10,108,89,65,37,26,9,28,12,3,29.90,29.75,10,2,22,0.00
2013-6-11,108,92,70,37,22,1,27,11,2,29.87,29.74,10,2,23,0.00
2013-6-12,109,91,69,36,29,25,25,12,6,29.93,29.75,12,2,23,0.00
2013-6-13,104,90,71,50,42,31,38,20,10,29.90,29.73,14,3,23,0.00
2013-6-14,103,90,72,56,49,42,50,27,15,29.86,29.69,10,2,20,0.00
2013-6-15,102,86,73,73,54,44,84,36,20,29.88,29.75,12,2,25,0.04
2013-6-16,105,88,68,60,48,30,72,32,10,29.94,29.78,8,1,18,0.00
2013-6-17,104,88,65,40,31,22,38,15,6,29.93,29.76,8,1,17,0.00
2013-6-18,107,87,65,43,-3,-100,28,10,1,29.87,29.72,10,2,33,0.00
2013-6-19,106,87,64,33,18,-3,22,9,2,29.80,29.67,12,3,28,0.00
2013-6-20,106,88,64,39,18,-16,30,12,1,29.83,29.72,13,2,22,0.00
2013-6-21,105,88,66,40,23,-3,32,13,2,29.87,29.73,15,3,24,0.00
2013-6-22,104,87,66,38,23,-1,27,12,2,29.87,29.71,12,2,24,0.00
2013-6-23,104,86,61,40,25,8,32,13,4,29.83,29.68,14,3,37,0.00
2013-6-24,103,86,64,40,28,9,29,15,4,29.86,29.74,15,4,27,0.00
2013-6-25,103,86,65,46,23,-4,39,14,2,29.94,29.83,8,1,30,0.00
2013-6-26,104,87,65,34,20,-2,25,11,2,30.02,29.88,8,2,20,0.00
2013-6-27,107,89,66,42,32,20,28,14,7,30.05,29.84,13,2,24,0.00
2013-6-28,111,93,71,40,34,31,27,14,7,29.92,29.74,7,1,14,0.00
2013-6-29,112,99,83,50,39,32,21,14,8,29.82,29.66,16,2,29,0.00
2013-6-30,110,95,77,66,49,42,68,24,11,29.92,29.61,13,4,32,0.02
2013-7-1,108,92,77,64,55,48,63,31,16,29.85,29.72,13,4,24,0.00
2013-7-2,103,88,70,64,57,53,82,38,21,30.00,29.78,27,6,50,0.05
2013-7-3,106,93,80,55,51,45,40,25,16,29.88,29.65,14,4,25,0.00
2013-7-4,104,93,80,59,53,48,47,28,16,29.81,29.64,12,3,23,0.00
2013-7-5,101,84,73,69,61,54,78,49,27,29.85,29.68,16,2,36,0.01
2013-7-6,107,87,70,62,59,51,70,43,18,29.85,29.66,7,1,19,0.00
2013-7-7,111,88,75,70,60,52,79,42,17,29.81,29.64,19,3,32,0.10
2013-7-8,106,92,81,63,58,54,49,33,20,29.88,29.76,20,5,33,0.00
2013-7-9,101,89,77,72,64,58,77,46,29,30.00,29.80,13,2,22,0.03
2013-7-10,100,82,71,74,68,63,87,64,31,29.98,29.83,9,1,15,0.06
2013-7-11,96,81,71,75,68,64,94,69,36,29.98,29.85,10,1,18,0.11
2013-7-12,96,82,74,72,66,60,88,59,33,29.98,29.82,11,2,18,0.17
2013-7-13,101,87,73,68,63,58,77,48,29,29.96,29.79,11,1,21,0.00
2013-7-14,104,91,76,65,61,57,64,39,24,29.90,29.72,12,2,21,0.00
2013-7-15,105,89,76,69,62,56,68,43,22,29.83,29.65,13,2,24,0.01
2013-7-16,85,78,72,71,66,62,79,68,52,30.03,29.82,18,8,33,0.10
2013-7-17,98,86,73,67,59,53,82,43,24,30.03,29.87,20,9,33,0.00
2013-7-18,96,85,78,64,58,55,61,41,26,29.96,29.81,18,12,30,0.00
2013-7-19,96,84,78,64,61,59,55,46,30,29.92,29.76,13,6,21,0.00
2013-7-20,98,80,72,70,66,60,92,66,30,29.90,29.73,13,1,26,0.26
2013-7-21,94,82,71,70,66,62,94,63,37,29.93,29.84,9,2,19,0.00
2013-7-22,96,83,70,68,64,60,90,56,32,29.98,29.85,12,2,25,0.00
2013-7-23,98,85,73,64,61,58,70,47,30,29.98,29.82,13,2,24,0.00
2013-7-24,96,84,75,72,64,60,90,55,35,29.91,29.80,15,1,26,0.05
2013-7-25,94,80,73,72,69,64,91,70,43,30.01,29.90,5,0,13,0.05
2013-7-26,99,79,71,72,68,63,90,73,32,30.10,30.00,11,1,19,0.15
2013-7-27,98,83,70,68,66,61,90,58,30,30.03,29.84,7,1,18,0.00
2013-7-28,102,88,71,67,58,46,80,43,19,29.88,29.75,9,1,19,0.00
2013-7-29,103,86,68,56,49,45,54,31,16,29.98,29.85,9,1,25,0.00
2013-7-30,106,90,72,58,53,51,54,31,17,30.07,29.91,11,1,21,0.00
2013-7-31,106,89,78,61,56,52,51,34,18,30.00,29.88,12,3,25,0.00
2013-8-1,95,87,78,61,59,58,54,40,32,29.94,29.86,14,3,27,0.00
2013-8-2,96,84,74,66,62,60,64,50,34,29.94,29.86,6,0,13,0.00
2013-8-3,104,88,70,63,58,53,73,41,19,29.99,29.85,8,1,14,0.00
2013-8-4,95,86,78,63,58,52,55,39,25,29.98,29.86,9,1,16,0.00
2013-8-5,98,82,69,68,59,54,91,51,24,30.03,29.84,20,4,32,0.29
2013-8-6,89,76,68,68,65,60,95,72,44,30.02,29.94,10,1,18,0.00
2013-8-7,96,81,66,66,58,47,90,52,20,30.05,29.91,11,2,22,0.00
2013-8-8,102,84,67,58,48,35,66,33,10,29.95,29.81,8,1,18,0.00
2013-8-9,105,87,63,47,43,33,47,24,9,29.93,29.80,9,1,21,0.00
2013-8-10,103,88,70,61,42,34,70,23,12,29.99,29.84,8,1,16,0.01
2013-8-11,101,86,77,70,56,35,67,37,21,29.94,29.79,17,5,27,0.23
2013-8-12,103,89,71,63,54,34,68,34,14,29.90,29.77,13,2,28,0.00
2013-8-13,106,89,68,47,40,35,44,20,10,29.97,29.78,9,2,17,0.00
2013-8-14,107,88,73,60,52,40,50,30,15,29.92,29.76,16,2,29,0.00
2013-8-15,106,91,77,60,55,49,54,33,16,29.93,29.79,10,2,19,0.00
2013-8-16,109,93,76,61,54,44,51,30,12,29.92,29.77,9,2,24,0.00
2013-8-17,110,92,73,61,55,46,61,33,12,29.93,29.75,10,1,18,0.00
2013-8-18,108,92,82,56,52,43,39,28,13,29.94,29.81,13,2,25,0.00
2013-8-19,106,92,79,57,53,46,45,29,15,29.92,29.77,15,2,27,0.00
2013-8-20,105,85,76,72,60,52,81,46,20,29.97,29.78,15,1,26,0.16
2013-8-21,99,84,72,65,60,55,73,47,25,29.96,29.83,10,1,18,0.00
2013-8-22,104,85,72,62,58,53,65,43,19,29.95,29.76,15,1,28,0.00
2013-8-23,102,84,69,65,58,51,68,44,21,29.93,29.73,9,1,22,0.00
2013-8-24,91,80,70,68,62,58,89,56,36,29.98,29.83,20,3,33,0.10
2013-8-25,95,77,70,71,68,62,93,77,35,30.00,29.90,12,1,26,0.32
2013-8-26,102,79,70,73,68,59,96,74,26,29.99,29.81,19,1,36,0.20
2013-8-27,84,69,66,67,65,58,95,87,43,29.90,29.85,13,2,23,0.00
2013-8-28,97,86,75,66,61,58,73,44,28,29.95,29.78,14,5,24,0.00
2013-8-29,88,78,70,71,68,66,95,71,50,30.08,29.94,8,0,18,0.97
2013-8-30,90,80,71,71,68,62,93,68,39,30.07,29.95,7,1,13,0.03
2013-8-31,99,83,69,67,64,61,88,56,30,30.00,29.82,9,2,17,0.00
2013-9-1,92,78,69,67,64,62,82,64,39,29.92,29.88,4,0,9,0.00
2013-11-4,79,64,48,52,45,41,78,52,27,29.91,29.77,12,2,22,0.00
2013-11-5,72,60,48,45,42,36,79,54,27,30.21,29.89,7,1,14,0.00
2013-11-6,76,61,42,38,20,-8,82,27,4,30.35,30.21,16,7,28,0.00
2013-11-7,80,69,61,28,17,-1,22,14,8,30.27,30.10,20,12,33,0.00
2013-11-8,83,67,49,36,32,28,49,29,17,30.14,30.00,11,1,17,0.00
2013-11-9,85,65,46,39,35,31,60,35,18,30.19,30.07,5,1,10,0.00
2013-11-10,88,66,46,38,35,32,59,35,15,30.21,30.06,7,0,15,0.00
2013-11-11,88,69,47,40,36,33,60,33,17,30.16,30.03,10,2,18,0.00
2013-11-12,84,74,65,44,38,28,40,27,19,30.20,30.10,25,14,43,0.00
2013-11-13,76,67,61,44,42,40,49,41,31,30.19,30.05,25,15,45,0.00
2013-11-14,82,67,53,45,40,32,63,39,20,30.09,29.91,14,3,26,0.00
2013-11-15,75,65,52,51,45,34,61,49,35,29.92,29.72,12,3,21,0.00
2013-11-16,76,65,55,51,45,35,75,50,23,29.96,29.77,11,3,21,0.00
2013-11-17,77,63,50,48,44,41,80,53,31,30.13,29.96,5,1,19,0.00
2013-11-18,80,63,49,47,43,40,78,51,24,30.17,30.02,8,1,14,0.00
2013-11-19,79,60,44,44,39,27,82,51,15,30.09,29.93,6,0,13,0.00
2013-11-20,75,61,46,43,39,35,77,48,25,30.00,29.89,8,1,20,0.00
2013-11-21,73,63,51,49,42,37,67,49,30,30.02,29.92,6,0,13,0.00
2013-11-22,65,56,48,56,50,46,95,82,54,30.06,29.87,6,0,13,0.38
2013-11-23,50,47,46,46,44,42,96,90,76,30.22,30.04,15,6,26,1.41
2013-11-24,61,50,45,44,40,37,84,69,46,30.28,30.20,15,6,24,0.01
2013-11-25,61,48,36,42,38,33,93,72,47,30.37,30.25,7,1,13,0.00
2013-11-26,64,55,39,39,32,25,93,44,28,30.40,30.27,20,12,41,0.00
2013-11-27,61,54,51,26,24,22,35,31,25,30.28,30.12,23,16,44,0.00
2013-11-28,74,60,48,37,30,24,66,34,22,30.20,30.09,18,6,30,0.00
2013-11-29,76,58,43,44,40,36,80,56,27,30.29,30.15,5,0,10,0.00
2013-11-30,72,56,44,48,44,40,90,68,39,30.28,30.16,1,0,4,0.00
2013-12-1,73,55,45,47,44,42,90,70,36,30.33,30.21,3,0,8,0.00
2013-12-2,73,53,39,43,38,29,94,65,21,30.27,30.05,3,0,9,0.00
2013-12-3,74,55,40,42,36,19,86,55,14,30.06,29.85,6,0,14,0.00
2013-12-4,69,58,46,47,42,34,90,56,29,30.00,29.85,13,4,23,0.04
2013-12-5,50,44,33,44,37,30,94,79,56,30.25,29.96,7,2,13,0.40
2013-12-6,54,39,29,30,27,22,92,66,31,30.37,30.25,6,1,10,0.00
2013-12-7,58,42,27,32,26,17,94,59,21,30.28,30.15,6,1,14,0.00
2013-12-8,56,47,39,40,36,28,80,68,49,30.26,30.14,5,1,12,0.00
2013-12-9,53,42,30,36,26,21,78,56,30,30.45,30.22,5,0,9,0.00
2013-12-10,60,48,29,25,19,12,79,34,18,30.45,30.25,14,6,26,0.00
2013-12-11,72,57,36,40,32,22,67,39,29,30.33,30.22,16,5,27,0.00
2013-12-12,74,61,43,44,35,29,71,38,30,30.26,30.09,19,7,31,0.00
2013-12-13,62,47,34,35,32,29,86,61,32,30.33,30.18,3,0,9,0.00
2013-12-14,65,49,33,34,28,22,88,51,21,30.44,30.32,12,3,21,0.00
2013-12-15,70,56,45,31,26,22,53,32,18,30.41,30.25,18,5,29,0.00
2013-12-16,78,55,40,35,29,24,66,41,15,30.34,30.24,6,1,15,0.00
2013-12-17,80,62,39,31,24,16,66,29,12,30.34,30.17,14,5,25,0.00
2013-12-18,80,64,50,35,27,20,47,26,11,30.17,29.92,11,1,22,0.00
2013-12-19,70,56,42,33,28,21,59,38,16,29.94,29.79,13,2,23,0.00
2013-12-20,54,47,43,43,38,29,92,74,45,29.97,29.73,11,2,19,0.37
2013-12-21,52,46,40,44,39,36,94,80,57,30.21,29.97,11,3,22,0.22
2013-12-22,60,45,34,42,37,33,100,76,45,30.43,30.21,5,0,9,0.01
2013-12-23,64,52,36,36,29,22,84,46,21,30.49,30.36,17,8,32,0.00
2013-12-24,71,55,40,36,26,18,78,36,19,30.36,30.20,19,6,33,0.00
2013-12-25,67,53,37,34,29,23,80,43,23,30.38,30.27,17,6,28,0.00
2013-12-26,63,56,50,26,22,16,37,27,21,30.33,30.20,24,15,41,0.00
2013-12-27,65,58,53,22,19,14,29,22,17,30.32,30.21,19,12,33,0.00
2013-12-28,65,52,37,32,24,12,58,35,18,30.24,30.06,16,2,26,0.00
2013-12-29,66,50,37,33,30,27,69,48,23,30.28,30.08,4,0,10,0.00
2013-12-30,68,49,34,31,28,24,77,47,22,30.41,30.27,7,1,13,0.00
2013-12-31,74,53,34,31,25,19,72,39,13,30.39,30.21,11,1,19,0.00
2014-1-1,72,55,40,31,28,24,62,37,17,30.28,30.17,3,1,6,0.00
2014-1-2,74,62,41,32,26,22,63,28,16,30.28,30.14,11,5,28,0.00